Time;durP1;ratioP1;P1;durP2;ratioP2;P2;SDS_P1;SDS_P2;PMS_P1;PMS_P2;Temp;Humidity;BMP_temperature;BMP_pressure;BME280_temperature;BME280_humidity;BME280_pressure;Samples;Min_cycle;Max_cycle;Signal;HPM_P1;HPM_P2
2022/08/10 00:02:44;;;;;;;8.60;4.10;;;24.30;62.70;;;;;;5036387;28;20202;-96
2022/08/10 00:05:16;;;;;;;7.27;3.13;;;24.30;62.80;;;;;;5048846;28;20875;-96
2022/08/10 00:07:46;;;;;;;6.37;3.57;;;24.20;62.70;;;;;;5041812;28;20212;-96
2022/08/10 00:10:39;;;;;;;8.53;3.37;;;24.20;62.60;;;;;;5040604;28;20201;-96
2022/08/10 00:13:09;;;;;;;6.60;3.33;;;24.20;63.40;;;;;;5038895;28;20220;-96
2022/08/10 00:18:33;;;;;;;10.57;4.27;;;24.10;63.10;;;;;;5036204;28;20222;-96
2022/08/10 00:21:33;;;;;;;8.50;3.50;;;24.10;63.20;;;;;;5035783;28;20239;-96
2022/08/10 00:24:01;;;;;;;6.50;2.57;;;24.10;63.60;;;;;;5014550;28;20212;-96
2022/08/10 00:26:29;;;;;;;8.10;3.73;;;24.00;62.90;;;;;;5022134;28;20692;-96
2022/08/10 00:29:03;;;;;;;5.13;2.63;;;24.00;62.90;;;;;;5038091;28;20716;-96
2022/08/10 00:31:38;;;;;;;5.13;3.03;;;24.00;63.20;;;;;;5034815;28;20200;-96
2022/08/10 00:34:13;;;;;;;10.23;4.20;;;23.90;63.30;;;;;;5039613;28;20264;-96
2022/08/10 00:36:42;;;;;;;8.90;3.93;;;23.90;63.00;;;;;;5048167;28;20294;-96
2022/08/10 00:39:20;;;;;;;9.80;4.00;;;23.90;63.40;;;;;;5056627;28;20208;-96
2022/08/10 00:41:48;;;;;;;10.47;4.50;;;23.90;63.50;;;;;;5053075;28;20228;-96
2022/08/10 00:44:18;;;;;;;6.53;3.20;;;23.80;63.40;;;;;;5042548;28;20212;-96
2022/08/10 00:46:47;;;;;;;5.47;2.83;;;23.80;63.70;;;;;;5043622;28;20290;-96
2022/08/10 00:49:16;;;;;;;7.83;3.43;;;23.80;63.50;;;;;;5042803;28;20280;-96
2022/08/10 00:51:48;;;;;;;7.00;3.30;;;23.80;63.50;;;;;;5041134;28;20211;-96
2022/08/10 00:54:36;;;;;;;8.60;3.53;;;23.70;63.80;;;;;;5043864;28;20203;-96
2022/08/10 00:57:09;;;;;;;7.83;3.40;;;23.80;64.30;;;;;;5042623;28;20227;-96
2022/08/10 00:59:37;;;;;;;4.47;3.10;;;23.70;64.00;;;;;;5036629;28;20217;-96
2022/08/10 01:04:49;;;;;;;6.23;3.23;;;23.70;64.00;;;;;;5022564;28;20333;-96
2022/08/10 01:10:23;;;;;;;5.73;3.00;;;23.70;64.20;;;;;;5036671;23;20233;-96
2022/08/10 01:13:25;;;;;;;4.63;2.33;;;23.60;64.00;;;;;;5036071;28;20215;-96
2022/08/10 01:16:00;;;;;;;5.00;2.73;;;23.60;63.80;;;;;;5043409;28;20210;-96
2022/08/10 01:18:55;;;;;;;6.17;2.87;;;23.60;63.90;;;;;;5027635;28;20204;-96
2022/08/10 01:28:24;;;;;;;5.73;2.37;;;23.50;63.90;;;;;;5056975;23;20272;-96
2022/08/10 01:31:24;;;;;;;6.60;3.27;;;23.50;64.20;;;;;;5045700;28;20215;-96
2022/08/10 01:33:58;;;;;;;4.33;2.60;;;23.40;64.30;;;;;;5052167;28;20205;-96
2022/08/10 01:36:30;;;;;;;8.53;3.30;;;23.40;64.10;;;;;;5048613;28;20211;-96
2022/08/10 01:41:57;;;;;;;11.77;4.47;;;23.30;64.10;;;;;;5039816;28;20209;-96
2022/08/10 01:44:42;;;;;;;10.27;4.37;;;23.40;64.20;;;;;;5045205;28;20192;-96
2022/08/10 01:50:23;;;;;;;7.93;3.07;;;23.30;64.20;;;;;;5055557;28;20215;-96
2022/08/10 01:52:53;;;;;;;5.00;2.57;;;23.20;64.40;;;;;;5029644;28;20204;-96
2022/08/10 01:55:26;;;;;;;6.00;2.63;;;23.30;64.20;;;;;;5044344;28;20209;-96
2022/08/10 01:58:06;;;;;;;3.13;2.40;;;23.20;64.30;;;;;;5050217;28;20218;-96
2022/08/10 02:06:27;;;;;;;6.93;2.57;;;23.10;64.30;;;;;;5047721;28;20208;-96
2022/08/10 02:09:02;;;;;;;5.37;2.83;;;23.10;64.40;;;;;;5053204;28;20176;-96
2022/08/10 02:11:31;;;;;;;6.80;3.43;;;23.00;64.10;;;;;;5031191;28;20263;-96
2022/08/10 02:14:10;;;;;;;4.60;2.40;;;23.00;64.10;;;;;;5043501;28;20201;-96
2022/08/10 02:19:30;;;;;;;10.20;3.67;;;23.00;64.30;;;;;;5040927;28;20210;-96
2022/08/10 02:22:08;;;;;;;6.33;3.23;;;23.00;63.90;;;;;;5054517;28;20242;-96
2022/08/10 02:24:39;;;;;;;4.80;2.37;;;22.90;64.20;;;;;;5049988;28;20188;-96
2022/08/10 02:27:07;;;;;;;6.00;3.20;;;22.90;64.10;;;;;;5045107;28;20220;-96
2022/08/10 02:29:35;;;;;;;7.70;3.47;;;22.90;64.10;;;;;;5040832;28;20199;-96
2022/08/10 02:32:07;;;;;;;6.50;3.17;;;22.90;64.10;;;;;;5066077;23;20245;-94
2022/08/10 02:38:00;;;;;;;7.60;2.80;;;22.80;64.20;;;;;;5024242;28;20336;-96
2022/08/10 02:40:55;;;;;;;10.17;3.97;;;22.80;64.40;;;;;;5019990;28;20279;-96
2022/08/10 02:43:30;;;;;;;8.40;3.50;;;22.80;64.10;;;;;;5026819;28;20216;-96
2022/08/10 02:46:07;;;;;;;8.20;3.10;;;22.80;64.10;;;;;;5026774;28;20232;-96
2022/08/10 02:48:43;;;;;;;4.00;2.30;;;22.80;64.10;;;;;;5024645;28;20225;-96
2022/08/10 02:54:36;;;;;;;5.67;2.63;;;22.70;64.30;;;;;;5015993;28;20213;-96
2022/08/10 02:57:09;;;;;;;8.63;3.53;;;22.70;64.30;;;;;;4998788;28;20221;-96
2022/08/10 02:59:44;;;;;;;4.97;2.60;;;22.70;64.20;;;;;;5009779;28;20208;-96
2022/08/10 03:02:19;;;;;;;4.70;2.50;;;22.70;64.30;;;;;;5024353;28;20226;-96
2022/08/10 03:08:16;;;;;;;5.83;2.40;;;22.70;64.40;;;;;;5049241;23;20233;-96
2022/08/10 03:10:47;;;;;;;6.60;3.00;;;22.60;64.40;;;;;;5039919;28;20207;-96
2022/08/10 03:16:15;;;;;;;9.13;3.57;;;22.60;64.30;;;;;;5030541;28;20212;-96
2022/08/10 03:18:45;;;;;;;10.47;4.03;;;22.60;64.30;;;;;;5039010;28;20210;-96
2022/08/10 03:21:19;;;;;;;7.90;3.00;;;22.60;64.40;;;;;;5035387;28;20282;-96
2022/08/10 03:23:51;;;;;;;11.83;4.60;;;22.60;64.40;;;;;;5037884;28;20206;-96
2022/08/10 03:26:22;;;;;;;7.33;3.33;;;22.50;64.70;;;;;;5037053;28;20209;-96
2022/08/10 03:31:48;;;;;;;11.17;4.33;;;22.50;64.40;;;;;;5113707;23;20244;-95
2022/08/10 03:34:43;;;;;;;11.47;4.00;;;22.40;64.50;;;;;;5037350;28;20205;-96
2022/08/10 03:37:18;;;;;;;7.43;2.73;;;22.40;64.90;;;;;;5039968;28;20196;-96
2022/08/10 03:42:40;;;;;;;4.77;2.67;;;22.40;64.60;;;;;;5044858;28;20288;-96
2022/08/10 03:45:15;;;;;;;6.07;2.90;;;22.40;64.70;;;;;;5042158;28;20228;-96
2022/08/10 03:47:45;;;;;;;5.10;2.77;;;22.40;64.70;;;;;;5059937;28;20234;-96
2022/08/10 03:52:59;;;;;;;4.83;2.73;;;22.30;64.80;;;;;;5054062;28;20205;-96
2022/08/10 03:58:21;;;;;;;12.13;4.13;;;22.30;64.80;;;;;;5053041;28;20200;-96
2022/08/10 04:01:09;;;;;;;5.77;3.07;;;22.20;64.90;;;;;;5042711;28;20220;-95
2022/08/10 04:03:51;;;;;;;9.23;3.13;;;22.20;64.90;;;;;;5038764;28;20205;-95
2022/08/10 04:06:27;;;;;;;6.00;3.10;;;22.20;65.00;;;;;;5054445;28;20211;-95
2022/08/10 04:08:55;;;;;;;5.97;2.50;;;22.10;64.80;;;;;;5058297;28;20559;-95
2022/08/10 04:11:39;;;;;;;7.03;3.03;;;22.10;64.70;;;;;;5058342;28;20191;-95
2022/08/10 04:14:08;;;;;;;12.40;4.77;;;22.10;65.00;;;;;;5066892;28;20204;-96
2022/08/10 04:16:38;;;;;;;6.67;3.00;;;22.10;64.80;;;;;;5079377;28;20482;-96
2022/08/10 04:19:23;;;;;;;4.30;2.47;;;22.10;65.10;;;;;;5062420;28;20254;-95
2022/08/10 04:22:00;;;;;;;6.93;2.93;;;22.00;65.10;;;;;;5059670;28;20224;-95
2022/08/10 04:24:32;;;;;;;8.57;3.77;;;22.00;65.20;;;;;;5054925;28;20269;-95
2022/08/10 04:27:00;;;;;;;9.03;3.80;;;22.00;65.00;;;;;;5056232;28;20208;-95
2022/08/10 04:29:32;;;;;;;9.53;3.60;;;21.90;64.90;;;;;;5056303;28;20205;-95
2022/08/10 04:32:01;;;;;;;9.60;3.90;;;21.90;64.90;;;;;;5053197;23;20229;-96
2022/08/10 04:37:19;;;;;;;11.27;4.07;;;21.90;65.20;;;;;;5038622;28;20254;-96
2022/08/10 04:39:50;;;;;;;6.17;3.20;;;21.80;65.30;;;;;;5038525;28;20217;-96
2022/08/10 04:42:18;;;;;;;4.77;3.03;;;21.80;65.30;;;;;;5037761;28;20581;-96
2022/08/10 04:44:48;;;;;;;6.23;3.27;;;21.80;65.40;;;;;;5037940;28;20217;-96
2022/08/10 04:47:41;;;;;;;10.03;3.90;;;21.80;65.60;;;;;;5037355;28;20201;-96
2022/08/10 04:50:15;;;;;;;6.40;3.00;;;21.80;65.70;;;;;;5037840;28;20201;-95
2022/08/10 04:52:55;;;;;;;5.20;2.77;;;21.70;65.70;;;;;;5037452;28;20363;-96
2022/08/10 04:55:25;;;;;;;11.60;4.83;;;21.70;65.70;;;;;;5031323;28;20278;-96
2022/08/10 05:00:45;;;;;;;7.03;3.20;;;21.70;66.00;;;;;;4996938;28;20245;-96
2022/08/10 05:06:53;;;;;;;5.63;3.40;;;21.60;66.50;;;;;;5109899;23;20228;-96
2022/08/10 05:09:30;;;;;;;4.33;2.83;;;21.60;66.50;;;;;;5035555;28;20216;-96
2022/08/10 05:12:22;;;;;;;6.80;3.40;;;21.60;66.20;;;;;;5034823;28;20205;-96
2022/08/10 05:18:07;;;;;;;9.57;4.63;;;21.60;66.30;;;;;;5016327;28;20213;-96
2022/08/10 05:24:42;;;;;;;9.43;4.47;;;21.60;67.10;;;;;;5017586;28;20225;-95
2022/08/10 05:33:48;;;;;;;4.33;3.17;;;21.60;67.50;;;;;;5011955;28;20285;-96
2022/08/10 05:42:01;;;;;;;5.37;3.20;;;21.60;67.30;;;;;;5012947;28;20249;-96
2022/08/10 05:47:27;;;;;;;5.97;3.83;;;21.60;67.50;;;;;;5007951;28;20206;-96
2022/08/10 05:53:07;;;;;;;8.83;3.87;;;21.60;67.70;;;;;;4990602;28;20221;-96
2022/08/10 05:55:38;;;;;;;7.47;3.70;;;21.60;67.50;;;;;;4988505;28;20209;-96
2022/08/10 06:01:17;;;;;;;6.23;3.43;;;21.70;68.00;;;;;;5004824;28;20671;-96
2022/08/10 06:07:19;;;;;;;7.47;3.87;;;21.70;67.60;;;;;;4978070;28;20211;-96
2022/08/10 06:09:47;;;;;;;13.37;5.53;;;21.80;67.90;;;;;;4988057;28;20300;-93
2022/08/10 06:12:31;;;;;;;5.80;3.50;;;21.80;67.70;;;;;;5002412;28;20241;-95
2022/08/10 06:15:01;;;;;;;8.23;4.60;;;21.80;67.90;;;;;;4994226;28;20202;-94
2022/08/10 06:17:30;;;;;;;5.93;4.17;;;21.90;67.80;;;;;;4994060;28;20202;-96
2022/08/10 06:19:59;;;;;;;5.03;3.37;;;21.90;68.00;;;;;;4999230;28;20211;-96
2022/08/10 06:22:51;;;;;;;10.30;4.77;;;21.90;67.80;;;;;;5002805;28;20329;-96
2022/08/10 06:30:32;;;;;;;6.30;3.40;;;22.00;67.90;;;;;;5010538;28;20217;-96
2022/08/10 06:33:02;;;;;;;5.67;3.23;;;22.00;68.60;;;;;;5009790;28;20207;-96
2022/08/10 06:35:33;;;;;;;5.63;3.50;;;22.10;68.00;;;;;;5010293;28;20264;-96
2022/08/10 06:38:05;;;;;;;5.60;4.10;;;22.10;68.10;;;;;;5007343;28;20206;-96
2022/08/10 06:40:35;;;;;;;11.70;4.87;;;22.20;68.50;;;;;;5007099;28;20255;-95
2022/08/10 06:43:13;;;;;;;5.77;3.40;;;22.20;68.40;;;;;;5015190;28;20227;-96
2022/08/10 06:49:08;;;;;;;6.47;3.53;;;22.30;68.30;;;;;;5019208;28;20202;-96
2022/08/10 06:51:43;;;;;;;7.80;3.93;;;22.30;68.30;;;;;;5011439;28;20204;-96
2022/08/10 06:56:49;;;;;;;5.93;3.47;;;22.40;68.20;;;;;;5018146;28;20209;-96
2022/08/10 07:05:28;;;;;;;5.60;3.30;;;22.60;68.50;;;;;;5018150;28;20202;-96
2022/08/10 07:07:59;;;;;;;8.97;4.33;;;22.70;68.30;;;;;;5007024;28;20519;-96
2022/08/10 07:10:28;;;;;;;9.23;4.93;;;22.70;68.00;;;;;;5006866;28;20209;-95
2022/08/10 07:13:00;;;;;;;8.13;4.10;;;22.80;68.20;;;;;;5002694;28;20271;-95
2022/08/10 07:15:31;;;;;;;7.53;4.47;;;22.80;68.10;;;;;;4991311;28;20542;-96
2022/08/10 07:18:00;;;;;;;9.83;5.07;;;22.90;68.10;;;;;;4985289;28;20215;-96
2022/08/10 07:20:34;;;;;;;7.00;3.83;;;22.90;67.80;;;;;;4986779;28;20212;-95
2022/08/10 07:23:03;;;;;;;7.40;4.20;;;23.00;68.00;;;;;;4992498;28;20236;-95
2022/08/10 07:25:33;;;;;;;9.13;4.63;;;23.10;67.80;;;;;;4994220;28;20313;-95
2022/08/10 07:28:03;;;;;;;4.93;3.40;;;23.10;67.60;;;;;;4993279;28;20969;-95
2022/08/10 07:30:32;;;;;;;9.07;4.63;;;23.20;67.80;;;;;;4999697;28;20244;-95
2022/08/10 07:33:01;;;;;;;9.87;4.60;;;23.20;67.60;;;;;;4992682;28;20256;-95
2022/08/10 07:35:34;;;;;;;4.73;3.60;;;23.30;67.70;;;;;;4996829;28;20210;-95
2022/08/10 07:38:03;;;;;;;8.63;4.73;;;23.30;67.60;;;;;;4993281;28;20202;-94
2022/08/10 07:40:33;;;;;;;10.93;4.70;;;23.40;67.50;;;;;;5005539;28;20679;-95
2022/08/10 07:43:26;;;;;;;9.03;4.83;;;23.50;67.50;;;;;;4999077;28;20291;-95
2022/08/10 07:45:55;;;;;;;11.90;4.63;;;23.50;67.40;;;;;;5024001;28;20208;-96
2022/08/10 07:48:37;;;;;;;8.03;4.50;;;23.60;67.30;;;;;;5024931;28;20272;-95
2022/08/10 07:51:11;;;;;;;5.10;3.33;;;23.70;67.40;;;;;;5009213;28;20201;-95
2022/08/10 07:53:55;;;;;;;8.37;3.97;;;23.80;68.00;;;;;;5011767;28;20197;-92
2022/08/10 07:56:26;;;;;;;7.67;4.10;;;23.80;67.00;;;;;;5009539;28;20222;-94
2022/08/10 08:04:42;;;;;;;10.93;5.77;;;24.00;66.70;;;;;;5058464;23;20238;-94
2022/08/10 08:07:15;;;;;;;9.93;5.13;;;24.10;66.50;;;;;;5058533;28;20257;-96
2022/08/10 08:10:11;;;;;;;7.50;4.33;;;24.20;66.20;;;;;;5047293;28;20216;-96
2022/08/10 08:13:10;;;;;;;6.70;3.60;;;24.30;66.00;;;;;;5042320;28;20208;-94
2022/08/10 08:15:40;;;;;;;7.67;3.30;;;24.30;66.00;;;;;;5044751;28;20212;-95
2022/08/10 08:18:11;;;;;;;5.37;3.77;;;24.40;66.00;;;;;;5047734;28;20199;-96
2022/08/10 08:20:41;;;;;;;5.33;3.67;;;24.50;66.00;;;;;;5038222;28;20201;-96
2022/08/10 08:23:21;;;;;;;9.87;4.50;;;24.60;66.00;;;;;;5036791;28;20375;-95
2022/08/10 08:25:50;;;;;;;8.90;4.60;;;24.70;66.50;;;;;;5040180;28;20735;-94
2022/08/10 08:30:59;;;;;;;7.73;4.70;;;24.80;65.20;;;;;;5032527;28;20564;-93
2022/08/10 08:33:29;;;;;;;8.60;4.57;;;24.90;65.30;;;;;;5038503;28;20202;-95
2022/08/10 08:35:57;;;;;;;11.23;5.53;;;25.00;65.00;;;;;;5043301;28;20216;-95
2022/08/10 08:38:28;;;;;;;10.73;5.57;;;25.10;64.80;;;;;;5044379;28;20219;-94
2022/08/10 08:41:03;;;;;;;7.17;3.87;;;25.20;64.40;;;;;;5044081;28;20762;-96
2022/08/10 08:43:46;;;;;;;9.63;4.20;;;25.30;63.70;;;;;;5047819;28;20231;-94
2022/08/10 08:46:42;;;;;;;8.27;3.97;;;25.40;63.90;;;;;;5040676;28;20203;-96
2022/08/10 08:49:23;;;;;;;12.60;6.27;;;25.50;63.80;;;;;;5036471;28;20205;-96
2022/08/10 08:52:03;;;;;;;9.00;4.53;;;25.60;63.80;;;;;;5043187;28;20203;-96
2022/08/10 08:54:48;;;;;;;10.67;5.17;;;25.70;63.50;;;;;;5040669;28;20207;-96
2022/08/10 08:57:25;;;;;;;10.53;4.80;;;25.80;62.80;;;;;;5042427;28;20228;-95
2022/08/10 09:00:06;;;;;;;7.13;4.07;;;25.90;62.90;;;;;;5043231;28;20192;-95
2022/08/10 09:02:54;;;;;;;6.57;3.83;;;26.10;62.40;;;;;;5044433;28;20250;-96
2022/08/10 09:05:38;;;;;;;4.90;2.80;;;26.20;62.80;;;;;;5043529;28;20723;-96
2022/08/10 09:08:30;;;;;;;7.37;3.73;;;26.40;62.40;;;;;;5044904;28;20200;-94
2022/08/10 09:11:04;;;;;;;13.83;6.77;;;26.70;61.70;;;;;;5035964;28;20271;-95
2022/08/10 09:13:40;;;;;;;21.97;5.87;;;26.90;62.20;;;;;;5035626;28;20216;-96
2022/08/10 09:16:21;;;;;;;13.77;6.57;;;27.10;61.80;;;;;;5035157;28;20200;-93
2022/08/10 09:18:52;;;;;;;8.07;4.50;;;27.40;60.70;;;;;;5049419;28;20246;-96
2022/08/10 09:21:28;;;;;;;5.83;3.33;;;27.70;60.60;;;;;;5038863;28;20228;-95
2022/08/10 09:24:25;;;;;;;9.87;4.30;;;28.00;59.60;;;;;;5036442;28;20870;-96
2022/08/10 09:27:00;;;;;;;6.43;3.43;;;28.30;58.70;;;;;;5052771;28;20268;-96
2022/08/10 09:29:31;;;;;;;8.13;3.57;;;28.60;58.20;;;;;;5053888;28;20192;-96
2022/08/10 09:32:09;;;;;;;3.70;2.53;;;28.90;58.50;;;;;;5048253;28;20197;-96
2022/08/10 09:38:11;;;;;;;3.60;2.03;;;29.40;56.10;;;;;;5036491;28;20707;-95
2022/08/10 09:40:46;;;;;;;6.70;3.90;;;29.80;55.60;;;;;;5035491;28;20211;-95
2022/08/10 09:43:22;;;;;;;4.67;3.27;;;29.90;54.80;;;;;;5032496;28;20225;-95
2022/08/10 09:46:00;;;;;;;4.85;2.63;;;30.20;54.40;;;;;;5034337;28;20656;-95
2022/08/10 09:51:30;;;;;;;7.78;4.38;;;30.70;54.40;;;;;;5044451;23;20382;-96
2022/08/10 09:54:07;;;;;;;5.15;2.95;;;30.90;53.00;;;;;;5029949;28;20684;-96
2022/08/10 09:56:47;;;;;;;5.78;3.15;;;31.10;53.60;;;;;;5027472;28;20208;-94
2022/08/10 09:59:31;;;;;;;7.43;3.65;;;31.30;52.80;;;;;;5033833;28;20262;-95
2022/08/10 10:02:06;;;;;;;5.57;2.97;;;31.60;52.40;;;;;;5012559;28;20223;-94
2022/08/10 10:04:40;;;;;;;9.82;3.67;;;31.80;52.10;;;;;;5012837;28;20192;-92
2022/08/10 10:07:16;;;;;;;2.38;2.17;;;32.00;51.10;;;;;;5027777;28;20641;-95
2022/08/10 10:09:52;;;;;;;5.13;2.85;;;32.10;51.00;;;;;;5033011;28;20204;-96
2022/08/10 10:12:26;;;;;;;5.55;2.83;;;32.40;50.30;;;;;;5030038;28;20204;-96
2022/08/10 10:15:22;;;;;;;7.63;4.45;;;32.50;49.80;;;;;;5031206;28;20230;-92
2022/08/10 10:18:18;;;;;;;5.93;3.75;;;32.70;49.30;;;;;;5027009;28;20225;-96
2022/08/10 10:24:04;;;;;;;9.60;4.57;;;33.10;49.00;;;;;;5029059;28;20282;-95
2022/08/10 10:26:42;;;;;;;12.18;5.43;;;33.30;47.70;;;;;;5026581;28;20230;-94
2022/08/10 10:29:23;;;;;;;7.78;4.80;;;33.40;47.30;;;;;;5043156;28;20195;-95
2022/08/10 10:31:57;;;;;;;11.43;6.38;;;33.50;46.70;;;;;;5031405;28;20207;-93
2022/08/10 10:34:56;;;;;;;10.05;5.97;;;33.70;46.80;;;;;;5024300;28;20862;-94
2022/08/10 10:37:25;;;;;;;6.97;4.13;;;33.80;45.60;;;;;;5011927;28;20259;-94
2022/08/10 10:40:00;;;;;;;6.68;3.75;;;33.90;46.70;;;;;;5033688;28;20197;-93
2022/08/10 10:42:46;;;;;;;5.03;3.35;;;34.00;45.20;;;;;;5017007;28;20233;-96
2022/08/10 10:45:21;;;;;;;6.78;4.00;;;34.20;44.60;;;;;;5021559;28;20267;-95
2022/08/10 10:48:19;;;;;;;5.80;3.78;;;34.20;45.20;;;;;;5039980;28;20188;-93
2022/08/10 10:50:59;;;;;;;4.47;3.08;;;34.40;44.60;;;;;;5046849;28;20192;-96
2022/08/10 10:53:34;;;;;;;6.85;3.45;;;34.50;44.20;;;;;;5049513;28;20212;-95
2022/08/10 10:56:16;;;;;;;2.60;2.40;;;34.60;43.80;;;;;;5041910;28;20196;-95
2022/08/10 10:59:07;;;;;;;6.38;2.55;;;34.70;43.60;;;;;;5025634;28;20203;-96
2022/08/10 11:01:55;;;;;;;5.13;3.30;;;34.80;43.30;;;;;;5017229;28;20278;-94
2022/08/10 11:07:35;;;;;;;11.13;4.60;;;35.00;43.70;;;;;;5061605;23;20297;-94
2022/08/10 11:10:45;;;;;;;10.52;4.20;;;35.10;42.20;;;;;;5095529;22;20236;-95
2022/08/10 11:13:33;;;;;;;7.90;4.15;;;35.30;42.00;;;;;;5024244;28;20199;-94
2022/08/10 11:19:13;;;;;;;8.30;4.85;;;35.50;41.90;;;;;;5004269;28;20664;-95
2022/08/10 11:22:08;;;;;;;7.43;4.20;;;35.60;40.50;;;;;;5009239;28;20232;-96
2022/08/10 11:25:24;;;;;;;4.13;3.08;;;35.70;40.60;;;;;;5010868;28;20225;-93
2022/08/10 11:30:52;;;;;;;4.78;3.35;;;35.90;39.90;;;;;;5049162;23;20306;-96
2022/08/10 11:33:41;;;;;;;5.30;3.47;;;36.00;40.00;;;;;;5031539;28;20203;-92
2022/08/10 11:36:16;;;;;;;8.18;3.75;;;36.10;40.20;;;;;;5023795;28;20260;-93
2022/08/10 11:38:54;;;;;;;6.80;3.70;;;36.20;40.10;;;;;;5042449;28;20314;-95
2022/08/10 11:41:29;;;;;;;5.15;3.50;;;36.20;39.70;;;;;;5052418;28;20183;-96
2022/08/10 11:44:08;;;;;;;6.35;3.38;;;36.30;39.30;;;;;;5047332;28;20317;-96
2022/08/10 11:46:40;;;;;;;8.77;4.60;;;36.30;39.10;;;;;;5038936;28;20204;-95
2022/08/10 11:51:53;;;;;;;5.53;3.35;;;36.50;38.40;;;;;;5015970;23;20247;-95
2022/08/10 11:54:30;;;;;;;5.80;2.85;;;36.50;38.60;;;;;;5010298;28;20280;-94
2022/08/10 11:57:00;;;;;;;7.68;4.25;;;36.60;39.00;;;;;;5009990;28;20262;-95
2022/08/10 12:02:19;;;;;;;9.48;4.45;;;36.70;38.80;;;;;;5007036;28;20216;-93
2022/08/10 12:04:53;;;;;;;10.07;5.22;;;36.80;38.90;;;;;;5013999;28;20227;-95
2022/08/10 12:07:28;;;;;;;7.85;3.53;;;36.80;38.60;;;;;;5028490;28;20232;-95
2022/08/10 12:09:58;;;;;;;6.60;4.38;;;36.90;37.80;;;;;;5012164;28;20619;-95
2022/08/10 12:12:28;;;;;;;11.90;4.72;;;36.90;38.10;;;;;;5019481;28;20268;-96
2022/08/10 12:15:19;;;;;;;8.93;4.63;;;37.00;38.00;;;;;;5015891;28;20255;-94
2022/08/10 12:18:14;;;;;;;5.53;3.42;;;37.10;37.70;;;;;;5009051;28;20975;-95
2022/08/10 12:20:49;;;;;;;3.35;2.55;;;37.20;37.30;;;;;;4966158;28;20205;-95
2022/08/10 12:23:24;;;;;;;5.70;3.60;;;37.30;37.40;;;;;;5016076;28;20308;-94
2022/08/10 12:25:59;;;;;;;5.97;3.70;;;37.40;37.50;;;;;;5032235;28;20239;-95
2022/08/10 12:32:29;;;;;;;;;;;;;;;;;;;;;
2022/08/10 12:35:12;;;;;;;8.23;5.20;;;37.70;36.80;;;;;;4998261;28;20699;-94
2022/08/10 12:38:05;;;;;;;6.03;4.15;;;37.80;36.60;;;;;;5031947;28;20587;-96
2022/08/10 12:46:41;;;;;;;3.65;3.20;;;38.10;36.00;;;;;;5028926;28;20205;-95
2022/08/10 12:49:17;;;;;;;10.68;6.43;;;38.20;36.30;;;;;;5037597;28;20204;-96
2022/08/10 12:52:03;;;;;;;5.43;3.75;;;38.30;35.90;;;;;;5042718;28;20201;-95
2022/08/10 12:54:35;;;;;;;8.18;4.05;;;38.30;35.10;;;;;;5024535;28;20272;-96
2022/08/10 12:57:27;;;;;;;7.30;4.68;;;38.30;35.10;;;;;;5012357;28;20209;-95
2022/08/10 13:00:00;;;;;;;7.22;4.57;;;38.50;35.20;;;;;;5029363;28;20867;-93
2022/08/10 13:02:30;;;;;;;6.57;4.45;;;38.50;35.10;;;;;;5032209;28;20208;-93
2022/08/10 13:05:31;;;;;;;10.13;5.25;;;38.50;35.20;;;;;;5039289;28;20215;-94
2022/08/10 13:10:53;;;;;;;3.70;3.15;;;38.60;34.60;;;;;;5038189;28;20232;-95
2022/08/10 13:13:25;;;;;;;12.82;5.55;;;38.60;34.30;;;;;;5034354;28;20303;-96
2022/08/10 13:16:20;;;;;;;4.95;3.75;;;38.70;35.00;;;;;;5029940;28;20673;-94
2022/08/10 13:18:48;;;;;;;4.25;3.15;;;38.70;34.10;;;;;;5019177;28;20300;-95
2022/08/10 13:21:18;;;;;;;7.45;4.75;;;38.80;34.90;;;;;;5014191;28;20552;-95
2022/08/10 13:23:53;;;;;;;9.07;4.95;;;38.90;34.30;;;;;;5049565;28;20300;-93
2022/08/10 13:26:29;;;;;;;6.15;3.72;;;38.90;34.00;;;;;;5045304;28;20205;-94
2022/08/10 13:32:11;;;;;;;5.53;3.97;;;39.00;33.60;;;;;;5041353;28;20208;-94
2022/08/10 13:34:46;;;;;;;3.85;3.15;;;39.10;33.70;;;;;;5035919;28;20224;-94
2022/08/10 13:40:33;;;;;;;5.93;4.07;;;39.30;33.30;;;;;;4988700;28;20217;-95
2022/08/10 13:43:14;;;;;;;5.07;3.72;;;39.30;33.60;;;;;;5013915;28;20232;-95
2022/08/10 13:45:45;;;;;;;7.03;3.90;;;39.40;32.50;;;;;;5012511;28;20209;-94
2022/08/10 13:48:29;;;;;;;9.75;4.20;;;39.40;33.30;;;;;;5034476;28;20542;-94
2022/08/10 13:51:00;;;;;;;4.72;3.85;;;39.40;32.60;;;;;;5030696;28;20899;-96
2022/08/10 13:53:36;;;;;;;4.70;3.38;;;39.50;32.60;;;;;;5029804;28;20216;-95
2022/08/10 13:58:56;;;;;;;6.70;4.22;;;39.50;32.30;;;;;;5029862;28;20212;-94
2022/08/10 14:01:26;;;;;;;6.40;3.88;;;39.50;32.40;;;;;;5031695;28;20208;-93
2022/08/10 14:04:13;;;;;;;10.38;5.30;;;39.60;32.20;;;;;;5031106;28;20310;-94
2022/08/10 14:10:05;;;;;;;6.80;4.55;;;39.70;33.50;;;;;;5009503;28;20197;-94
2022/08/10 14:12:34;;;;;;;7.05;3.72;;;39.70;33.10;;;;;;5012203;28;20296;-94
2022/08/10 14:15:06;;;;;;;7.88;4.13;;;39.70;33.80;;;;;;5030488;28;20258;-93
2022/08/10 14:17:38;;;;;;;4.20;2.85;;;39.70;33.20;;;;;;5030178;28;20197;-92
2022/08/10 14:20:26;;;;;;;10.68;4.05;;;39.80;34.10;;;;;;5014453;28;20263;-91
2022/08/10 14:23:01;;;;;;;9.23;5.88;;;39.80;33.90;;;;;;5028980;28;20243;-94
2022/08/10 14:25:28;;;;;;;7.30;3.92;;;39.80;33.60;;;;;;5030501;28;20649;-96
2022/08/10 14:27:59;;;;;;;6.95;4.10;;;39.80;34.00;;;;;;5015455;28;20753;-93
2022/08/10 14:30:29;;;;;;;7.88;4.72;;;39.80;33.80;;;;;;5031860;28;20232;-96
2022/08/10 14:33:03;;;;;;;5.45;3.90;;;39.70;34.00;;;;;;5030903;28;20715;-93
2022/08/10 14:35:41;;;;;;;6.45;4.03;;;39.70;34.20;;;;;;5023650;28;20562;-93
2022/08/10 14:43:41;;;;;;;4.72;3.40;;;39.60;34.10;;;;;;5198914;23;20228;-95
2022/08/10 14:46:44;;;;;;;7.72;4.55;;;39.50;34.30;;;;;;5030585;28;20287;-96
2022/08/10 14:49:15;;;;;;;6.57;4.40;;;39.50;34.20;;;;;;5029979;28;20330;-94
2022/08/10 14:55:29;;;;;;;10.38;4.57;;;39.40;34.30;;;;;;5118066;23;20251;-95
2022/08/10 14:58:00;;;;;;;9.93;4.93;;;39.30;34.00;;;;;;5031164;28;20212;-93
2022/08/10 15:00:30;;;;;;;5.88;3.60;;;39.30;34.60;;;;;;5031075;28;20219;-93
2022/08/10 15:03:47;;;;;;;5.22;3.58;;;39.30;34.40;;;;;;5028525;28;20209;-95
2022/08/10 15:09:18;;;;;;;6.75;3.38;;;39.10;34.40;;;;;;5029520;23;20235;-93
2022/08/10 15:12:06;;;;;;;6.53;4.25;;;39.00;34.50;;;;;;5028068;28;20371;-95
2022/08/10 15:14:37;;;;;;;7.65;3.78;;;38.90;34.40;;;;;;5025506;28;20553;-93
2022/08/10 15:17:35;;;;;;;7.35;4.15;;;38.80;34.60;;;;;;5033295;28;20254;-92
2022/08/10 15:20:08;;;;;;;9.70;5.65;;;38.60;34.60;;;;;;5012683;28;20197;-94
2022/08/10 15:22:45;;;;;;;10.90;4.60;;;38.50;34.80;;;;;;5027617;28;20201;-94
2022/08/10 15:25:16;;;;;;;8.38;4.75;;;38.40;34.90;;;;;;5016368;28;20228;-92
2022/08/10 15:27:47;;;;;;;6.18;3.95;;;38.20;35.00;;;;;;5029205;28;20215;-94
2022/08/10 15:30:15;;;;;;;6.60;3.90;;;38.00;35.00;;;;;;5027291;28;20208;-94
2022/08/10 15:38:50;;;;;;;13.07;5.78;;;37.70;35.10;;;;;;5032894;28;20223;-93
2022/08/10 15:44:18;;;;;;;10.75;5.30;;;37.40;35.20;;;;;;5025154;28;20237;-95
2022/08/10 15:46:50;;;;;;;6.15;3.35;;;37.30;35.70;;;;;;5028854;28;20259;-93
2022/08/10 15:49:24;;;;;;;5.45;3.38;;;37.30;35.90;;;;;;5023646;28;20197;-92
2022/08/10 15:51:59;;;;;;;7.57;3.42;;;37.20;36.10;;;;;;5028370;28;20208;-92
2022/08/10 15:54:31;;;;;;;9.90;5.07;;;37.10;36.00;;;;;;5026768;28;20203;-90
2022/08/10 15:59:51;;;;;;;7.50;4.05;;;37.00;35.90;;;;;;5034845;28;20281;-89
2022/08/10 16:02:32;;;;;;;9.43;4.35;;;37.00;35.90;;;;;;5035238;28;20254;-93
2022/08/10 16:05:04;;;;;;;8.52;3.65;;;36.90;35.90;;;;;;5033808;28;20357;-93
2022/08/10 16:07:34;;;;;;;6.93;3.67;;;36.80;36.00;;;;;;5031971;28;20213;-92
2022/08/10 16:10:21;;;;;;;7.47;3.92;;;36.80;36.30;;;;;;5030482;28;20200;-89
2022/08/10 16:12:58;;;;;;;17.33;4.97;;;36.70;36.30;;;;;;5026432;28;20206;-92
2022/08/10 16:15:53;;;;;;;4.70;2.90;;;36.70;36.50;;;;;;5043116;28;20653;-92
2022/08/10 16:18:26;;;;;;;7.18;3.70;;;36.60;36.50;;;;;;5031391;28;21011;-92
2022/08/10 16:21:11;;;;;;;8.40;4.43;;;36.50;36.50;;;;;;5031182;28;20253;-91
2022/08/10 16:23:41;;;;;;;7.45;4.10;;;36.50;36.50;;;;;;5031889;28;20205;-92
2022/08/10 16:26:14;;;;;;;7.70;3.45;;;36.40;36.50;;;;;;5029635;28;20228;-91
2022/08/10 16:28:45;;;;;;;15.23;5.28;;;36.40;36.80;;;;;;5030923;28;20262;-92
2022/08/10 16:31:19;;;;;;;8.52;4.75;;;36.30;36.80;;;;;;5025031;28;20208;-92
2022/08/10 16:33:50;;;;;;;6.45;3.50;;;36.20;36.90;;;;;;5030055;28;20673;-91
2022/08/10 16:44:53;;;;;;;10.40;4.88;;;36.10;37.10;;;;;;5011982;28;20224;-94
2022/08/10 16:47:25;;;;;;;5.65;2.95;;;36.10;37.20;;;;;;5027686;28;20225;-90
2022/08/10 16:52:37;;;;;;;7.68;3.67;;;36.00;37.50;;;;;;5027597;28;20209;-90
2022/08/10 16:55:09;;;;;;;7.38;4.03;;;36.00;37.50;;;;;;5031447;28;20201;-92
2022/08/10 16:57:42;;;;;;;8.27;4.35;;;36.00;37.50;;;;;;5031152;28;20661;-91
2022/08/10 17:00:12;;;;;;;6.93;3.70;;;35.90;37.60;;;;;;5034655;28;20255;-90